Time;durP1;ratioP1;P1;durP2;ratioP2;P2;SDS_P1;SDS_P2;PMS_P1;PMS_P2;Temp;Humidity;BMP_temperature;BMP_pressure;BME280_temperature;BME280_humidity;BME280_pressure;Samples;Min_cycle;Max_cycle;Signal;HPM_P1;HPM_P2
2021/10/07 00:00:57;;;;;;;4.63;1.65;;;;;;;9.27;100.00;97446.13;5056810;28;20059;-63
2021/10/07 00:03:42;;;;;;;5.25;1.85;;;;;;;9.37;100.00;97445.69;5049777;28;20037;-60
2021/10/07 00:06:28;;;;;;;1.95;1.13;;;;;;;9.36;100.00;97443.31;5050799;28;20099;-59
2021/10/07 00:09:14;;;;;;;4.95;1.40;;;;;;;9.29;100.00;97437.59;5048395;28;20072;-60
2021/10/07 00:12:00;;;;;;;2.55;1.30;;;;;;;9.29;100.00;97440.34;5055351;28;20055;-61
2021/10/07 00:14:45;;;;;;;2.22;1.38;;;;;;;9.34;100.00;97440.13;5056308;28;20037;-61
2021/10/07 00:17:31;;;;;;;4.70;1.40;;;;;;;9.24;100.00;97437.81;5048170;28;20135;-60
2021/10/07 00:20:17;;;;;;;4.63;1.33;;;;;;;9.08;100.00;97440.44;5047183;28;20110;-61
2021/10/07 00:23:03;;;;;;;1.65;1.48;;;;;;;8.97;100.00;97440.84;5052261;28;20392;-62
2021/10/07 00:25:48;;;;;;;1.85;1.27;;;;;;;8.97;100.00;97429.94;5054588;28;20082;-58
2021/10/07 00:28:34;;;;;;;4.15;1.15;;;;;;;9.03;100.00;97432.44;5056207;28;20037;-60
2021/10/07 00:31:22;;;;;;;3.13;1.10;;;;;;;8.99;100.00;97438.56;5051033;28;20797;-60
2021/10/07 00:34:21;;;;;;;3.30;1.23;;;;;;;8.96;100.00;97438.47;5049833;28;20040;-57
2021/10/07 00:39:53;;;;;;;1.10;1.00;;;;;;;8.86;100.00;97436.97;5054705;28;20456;-59
2021/10/07 00:42:38;;;;;;;2.60;1.13;;;;;;;8.73;100.00;97435.31;5053811;28;20649;-60
2021/10/07 00:45:24;;;;;;;1.30;0.90;;;;;;;8.69;100.00;97439.84;5048630;28;20565;-62
2021/10/07 00:48:10;;;;;;;2.08;0.80;;;;;;;8.66;100.00;97438.59;5055985;28;20095;-61
2021/10/07 00:50:55;;;;;;;2.97;1.00;;;;;;;8.82;100.00;97435.22;5059722;28;20058;-61
2021/10/07 00:53:41;;;;;;;1.98;1.08;;;;;;;8.84;100.00;97436.50;5064987;28;20044;-62
2021/10/07 00:56:27;;;;;;;2.10;1.15;;;;;;;8.80;100.00;97441.03;5060732;28;20040;-62
2021/10/07 00:59:13;;;;;;;1.65;0.88;;;;;;;8.76;100.00;97434.66;5058982;28;20393;-62
2021/10/07 01:02:06;;;;;;;2.13;1.27;;;;;;;8.78;100.00;97435.91;5052920;28;20118;-63
2021/10/07 01:04:53;;;;;;;3.05;1.02;;;;;;;8.83;100.00;97429.44;5061615;28;20078;-63
2021/10/07 01:07:38;;;;;;;2.92;0.98;;;;;;;8.64;100.00;97429.94;5061457;28;20032;-64
2021/10/07 01:10:24;;;;;;;3.33;1.13;;;;;;;8.65;100.00;97430.75;5047137;28;20040;-62
2021/10/07 01:13:12;;;;;;;1.98;0.95;;;;;;;8.76;100.00;97438.16;5059543;28;20051;-62
2021/10/07 01:16:02;;;;;;;4.45;0.88;;;;;;;8.80;100.00;97433.66;5063680;28;20051;-60
2021/10/07 01:18:48;;;;;;;3.03;1.15;;;;;;;8.92;100.00;97434.81;5058623;28;20133;-58
2021/10/07 01:21:33;;;;;;;2.95;1.02;;;;;;;8.86;100.00;97445.16;5053859;28;20059;-62
2021/10/07 01:24:19;;;;;;;2.75;1.13;;;;;;;8.71;100.00;97446.56;5039791;28;20041;-62
2021/10/07 01:27:05;;;;;;;4.32;1.20;;;;;;;8.79;100.00;97440.22;5055449;28;20040;-62
2021/10/07 01:29:53;;;;;;;1.88;1.05;;;;;;;8.90;100.00;97450.75;5074767;28;20040;-61
2021/10/07 01:32:40;;;;;;;6.00;0.93;;;;;;;9.11;100.00;97437.00;5076049;28;20040;-61
2021/10/07 01:35:26;;;;;;;3.17;1.25;;;;;;;9.04;100.00;97436.75;5061186;28;20052;-62
2021/10/07 01:38:12;;;;;;;2.42;1.05;;;;;;;8.88;100.00;97442.09;5053626;28;20045;-62
2021/10/07 01:40:58;;;;;;;4.75;1.10;;;;;;;8.81;100.00;97445.38;5063606;28;20079;-61
2021/10/07 01:43:44;;;;;;;1.15;0.82;;;;;;;8.86;100.00;97439.69;5073782;28;20071;-59
2021/10/07 01:46:30;;;;;;;2.03;0.90;;;;;;;8.79;100.00;97442.19;5068741;28;20765;-62
2021/10/07 01:49:16;;;;;;;3.13;0.95;;;;;;;8.76;100.00;97435.44;5031445;28;20040;-62
2021/10/07 01:52:03;;;;;;;2.88;0.95;;;;;;;8.68;100.00;97439.06;5049145;28;20081;-62
2021/10/07 01:54:48;;;;;;;2.17;0.93;;;;;;;8.63;100.00;97438.47;5062620;28;20517;-61
2021/10/07 01:57:34;;;;;;;1.88;0.95;;;;;;;8.62;100.00;97440.41;5059682;28;20568;-63
2021/10/07 02:00:20;;;;;;;3.83;0.95;;;;;;;8.61;100.00;97436.88;5061611;28;20036;-62
2021/10/07 02:03:06;;;;;;;1.73;1.05;;;;;;;8.55;100.00;97435.50;5057028;28;20136;-62
2021/10/07 02:05:51;;;;;;;1.52;1.05;;;;;;;8.63;100.00;97433.81;5069085;28;20040;-61
2021/10/07 02:08:37;;;;;;;1.33;0.73;;;;;;;8.50;100.00;97424.78;5057768;28;20103;-60
2021/10/07 02:11:23;;;;;;;4.50;0.90;;;;;;;8.39;100.00;97427.09;5048818;28;20482;-62
2021/10/07 02:14:09;;;;;;;2.22;1.05;;;;;;;8.47;100.00;97427.38;5039214;28;20053;-64
2021/10/07 02:16:55;;;;;;;4.72;1.73;;;;;;;8.49;100.00;97436.03;5052304;28;20044;-63
2021/10/07 02:19:40;;;;;;;2.95;0.90;;;;;;;8.61;100.00;97431.41;5072876;28;20037;-62
2021/10/07 02:22:26;;;;;;;1.33;0.90;;;;;;;8.66;100.00;97430.41;5068559;28;20050;-63
2021/10/07 02:25:12;;;;;;;4.35;1.33;;;;;;;8.63;100.00;97428.34;5090837;28;20078;-63
2021/10/07 02:27:58;;;;;;;4.82;0.90;;;;;;;8.76;100.00;97427.25;5070562;28;20040;-63
2021/10/07 02:30:44;;;;;;;5.00;0.98;;;;;;;8.69;100.00;97427.00;5083933;28;20051;-63
2021/10/07 02:33:30;;;;;;;3.35;1.20;;;;;;;8.65;100.00;97428.81;5079481;28;20510;-63
2021/10/07 02:36:16;;;;;;;1.80;1.20;;;;;;;8.55;100.00;97434.69;5079655;28;20036;-63
2021/10/07 02:39:03;;;;;;;2.75;0.80;;;;;;;8.56;100.00;97433.56;5069389;28;20060;-64
2021/10/07 02:41:49;;;;;;;2.03;1.05;;;;;;;8.54;100.00;97428.44;5083353;28;20052;-61
2021/10/07 02:44:35;;;;;;;3.35;1.10;;;;;;;8.67;100.00;97434.72;5076258;28;20044;-61
2021/10/07 02:47:21;;;;;;;4.50;1.10;;;;;;;8.74;100.00;97434.97;5067328;28;20040;-63
2021/10/07 02:50:08;;;;;;;5.18;1.95;;;;;;;8.77;100.00;97428.84;5049651;28;20044;-63
2021/10/07 02:52:55;;;;;;;2.58;1.02;;;;;;;8.84;100.00;97435.69;5060517;28;20052;-63
2021/10/07 02:55:41;;;;;;;2.35;0.75;;;;;;;8.86;100.00;97442.44;5060948;28;20052;-62
2021/10/07 02:58:26;;;;;;;1.13;0.88;;;;;;;8.86;100.00;97439.69;5052637;28;20082;-62
2021/10/07 03:01:12;;;;;;;3.20;0.80;;;;;;;8.84;100.00;97441.97;5051128;28;20079;-62
2021/10/07 03:03:58;;;;;;;2.00;0.77;;;;;;;8.81;100.00;97442.63;5057496;28;20059;-60
2021/10/07 03:06:43;;;;;;;4.55;1.00;;;;;;;8.80;100.00;97444.56;5067395;28;20044;-61
2021/10/07 03:09:29;;;;;;;5.32;1.20;;;;;;;8.77;100.00;97442.50;5063735;28;20566;-62
2021/10/07 03:12:15;;;;;;;5.45;1.10;;;;;;;8.81;100.00;97445.38;5059495;28;20090;-62
2021/10/07 03:15:01;;;;;;;0.98;0.65;;;;;;;8.85;100.00;97445.50;5055455;28;20049;-62
2021/10/07 03:17:46;;;;;;;2.92;0.75;;;;;;;8.88;100.00;97448.34;5054306;28;20045;-61
2021/10/07 03:20:32;;;;;;;1.92;0.80;;;;;;;8.87;100.00;97448.69;5048593;28;20063;-62
2021/10/07 03:23:18;;;;;;;4.75;0.90;;;;;;;8.91;100.00;97447.69;5062518;28;20055;-59
2021/10/07 03:26:04;;;;;;;3.45;0.95;;;;;;;8.93;100.00;97447.31;5053573;28;20044;-61
2021/10/07 03:28:49;;;;;;;5.63;1.20;;;;;;;8.93;100.00;97442.69;5056465;28;20143;-61
2021/10/07 03:31:35;;;;;;;6.78;2.20;;;;;;;8.98;100.00;97442.47;5053588;28;20041;-61
2021/10/07 03:34:21;;;;;;;2.63;1.10;;;;;;;8.99;100.00;97443.25;5051952;28;20031;-62
2021/10/07 03:37:07;;;;;;;1.77;0.90;;;;;;;9.01;100.00;97437.47;5062582;28;20370;-62
2021/10/07 03:39:52;;;;;;;1.77;1.02;;;;;;;8.76;100.00;97445.56;5074964;28;20048;-61
2021/10/07 03:42:38;;;;;;;2.72;1.45;;;;;;;8.54;100.00;97435.81;5075002;28;20124;-64
2021/10/07 03:45:24;;;;;;;4.30;1.00;;;;;;;8.68;100.00;97443.72;5060083;28;20550;-62
2021/10/07 03:48:10;;;;;;;3.10;1.13;;;;;;;8.72;100.00;97450.13;5053364;28;20147;-60
2021/10/07 03:50:55;;;;;;;8.13;1.88;;;;;;;8.62;100.00;97451.31;5061790;28;20444;-61
2021/10/07 03:53:41;;;;;;;2.40;0.90;;;;;;;8.60;100.00;97453.59;5066511;28;20054;-61
2021/10/07 03:56:27;;;;;;;4.28;1.30;;;;;;;8.51;100.00;97450.13;5048857;28;20041;-60
2021/10/07 03:59:12;;;;;;;2.95;1.23;;;;;;;8.39;100.00;97451.66;5061471;28;20099;-61
2021/10/07 04:01:58;;;;;;;4.35;1.38;;;;;;;8.42;100.00;97459.19;5061986;28;20048;-61
2021/10/07 04:04:44;;;;;;;2.85;1.13;;;;;;;8.34;100.00;97459.25;5053301;28;20573;-61
2021/10/07 04:07:30;;;;;;;2.08;1.10;;;;;;;8.32;100.00;97462.31;5054623;28;20083;-61
2021/10/07 04:10:15;;;;;;;4.03;1.05;;;;;;;8.35;100.00;97460.84;5042908;28;20059;-63
2021/10/07 04:13:01;;;;;;;2.63;1.10;;;;;;;8.36;100.00;97467.91;5064066;28;20047;-62
2021/10/07 04:15:48;;;;;;;2.78;1.10;;;;;;;8.42;100.00;97461.91;5055101;28;20036;-63
2021/10/07 04:18:34;;;;;;;3.05;1.23;;;;;;;8.39;100.00;97459.84;5053556;28;20040;-61
2021/10/07 04:21:20;;;;;;;4.78;1.33;;;;;;;8.38;100.00;97466.44;5046850;28;20579;-62
2021/10/07 04:24:06;;;;;;;5.20;1.30;;;;;;;8.26;100.00;97463.63;5059032;28;20492;-63
2021/10/07 04:26:51;;;;;;;3.67;1.40;;;;;;;8.14;100.00;97471.72;5048058;28;20730;-62
2021/10/07 04:29:37;;;;;;;2.65;1.58;;;;;;;8.01;100.00;97477.13;5068543;28;20517;-63
2021/10/07 04:32:23;;;;;;;3.00;2.10;;;;;;;8.02;100.00;97481.44;5055560;28;20059;-63
2021/10/07 04:35:09;;;;;;;4.28;1.50;;;;;;;8.22;100.00;97488.06;5051371;28;20436;-63
2021/10/07 04:37:54;;;;;;;3.50;1.73;;;;;;;8.35;100.00;97483.47;5059260;28;20087;-61
2021/10/07 04:40:40;;;;;;;2.75;1.70;;;;;;;8.53;100.00;97486.09;5055117;28;20037;-62
2021/10/07 04:43:26;;;;;;;5.03;1.75;;;;;;;8.58;100.00;97489.41;5051895;28;20376;-63
2021/10/07 04:46:11;;;;;;;5.60;1.75;;;;;;;8.63;100.00;97488.44;5060285;28;20044;-61
2021/10/07 04:48:57;;;;;;;4.90;2.30;;;;;;;8.63;100.00;97493.09;5062681;28;20056;-62
2021/10/07 04:51:43;;;;;;;5.25;2.33;;;;;;;8.66;100.00;97492.41;5062962;28;20497;-62
2021/10/07 04:54:29;;;;;;;5.30;2.20;;;;;;;8.74;100.00;97492.34;5063332;28;20036;-61
2021/10/07 04:57:15;;;;;;;5.18;2.33;;;;;;;8.67;100.00;97496.75;5061050;28;21560;-61
2021/10/07 05:00:01;;;;;;;4.40;2.20;;;;;;;8.64;100.00;97500.94;5067857;28;20633;-62
2021/10/07 05:02:47;;;;;;;5.35;2.42;;;;;;;8.70;100.00;97496.88;5061349;28;20044;-63
2021/10/07 05:05:33;;;;;;;3.33;2.13;;;;;;;8.70;100.00;97498.81;5053090;28;20133;-63
2021/10/07 05:08:18;;;;;;;6.75;1.90;;;;;;;8.42;100.00;97497.41;5060826;28;20370;-65
2021/10/07 05:11:05;;;;;;;2.95;2.30;;;;;;;8.26;100.00;97495.59;5070912;28;20488;-62
2021/10/07 05:13:51;;;;;;;5.05;2.45;;;;;;;8.16;100.00;97500.31;5056931;28;20049;-61
2021/10/07 05:16:36;;;;;;;4.15;2.17;;;;;;;8.14;100.00;97497.09;5045935;28;20043;-62
2021/10/07 05:19:22;;;;;;;6.82;2.20;;;;;;;8.26;100.00;97487.41;5063507;28;21061;-62
2021/10/07 05:22:08;;;;;;;3.92;2.05;;;;;;;8.30;100.00;97494.59;5057818;28;20058;-61
2021/10/07 05:24:53;;;;;;;4.88;2.35;;;;;;;8.46;100.00;97497.53;5074190;28;20696;-62
2021/10/07 05:27:39;;;;;;;2.50;2.10;;;;;;;8.24;100.00;97488.50;5077139;28;20047;-60
2021/10/07 05:30:25;;;;;;;4.97;2.28;;;;;;;8.12;100.00;97499.38;5062533;28;20040;-60
2021/10/07 05:33:11;;;;;;;3.60;2.50;;;;;;;8.16;100.00;97492.13;5056169;28;20130;-60
2021/10/07 05:35:56;;;;;;;4.60;2.85;;;;;;;8.27;100.00;97495.25;5067248;28;20123;-61
2021/10/07 05:38:42;;;;;;;6.32;3.38;;;;;;;8.36;100.00;97493.25;5056317;28;20051;-62
2021/10/07 05:41:28;;;;;;;5.97;3.20;;;;;;;8.23;100.00;97497.84;5049568;28;20574;-63
2021/10/07 05:44:13;;;;;;;4.82;2.60;;;;;;;8.21;100.00;97507.47;5057650;28;20055;-62
2021/10/07 05:46:59;;;;;;;12.38;3.33;;;;;;;8.22;100.00;97498.19;5066146;28;20036;-62
2021/10/07 05:49:45;;;;;;;4.65;3.00;;;;;;;8.31;100.00;97503.59;5076589;28;20547;-62
2021/10/07 05:52:30;;;;;;;4.40;2.70;;;;;;;8.37;100.00;97511.25;5075750;28;20642;-61
2021/10/07 05:55:16;;;;;;;4.20;2.45;;;;;;;8.44;100.00;97512.66;5072272;28;20565;-62
2021/10/07 05:58:02;;;;;;;11.50;3.13;;;;;;;8.45;100.00;97517.00;5076491;28;20043;-63
2021/10/07 06:00:48;;;;;;;6.53;3.08;;;;;;;8.51;100.00;97505.53;5074639;28;20539;-61
2021/10/07 06:03:33;;;;;;;10.77;2.80;;;;;;;8.34;100.00;97511.91;5055259;28;20048;-60
2021/10/07 06:06:19;;;;;;;6.60;3.28;;;;;;;8.09;100.00;97513.66;5050703;28;20174;-61
2021/10/07 06:09:07;;;;;;;8.13;3.53;;;;;;;7.97;100.00;97517.09;5050735;28;20036;-61
2021/10/07 06:11:52;;;;;;;6.35;3.75;;;;;;;7.86;100.00;97524.06;5056807;28;20110;-63
2021/10/07 06:14:38;;;;;;;7.25;3.67;;;;;;;7.71;100.00;97514.50;5063398;28;20036;-61
2021/10/07 06:17:24;;;;;;;5.38;3.83;;;;;;;7.67;100.00;97510.84;5031372;28;20769;-61
2021/10/07 06:20:30;;;;;;;9.65;4.53;;;;;;;7.79;100.00;97513.66;5047246;28;20159;-60
2021/10/07 06:23:16;;;;;;;9.88;5.43;;;;;;;7.93;100.00;97518.88;5037322;28;20131;-60
2021/10/07 06:26:03;;;;;;;9.35;4.70;;;;;;;8.04;100.00;97511.13;5047733;28;20358;-61
2021/10/07 06:28:51;;;;;;;8.30;5.65;;;;;;;8.04;100.00;97511.91;5021439;28;20037;-62
2021/10/07 06:31:37;;;;;;;7.20;4.80;;;;;;;8.11;100.00;97513.34;5041465;28;20037;-61
2021/10/07 06:34:23;;;;;;;7.85;4.63;;;;;;;8.36;100.00;97512.38;5047687;28;20049;-61
2021/10/07 06:37:09;;;;;;;7.25;4.13;;;;;;;8.86;100.00;97513.44;5045986;28;20060;-61
2021/10/07 06:39:54;;;;;;;5.30;3.85;;;;;;;9.12;100.00;97513.19;5035594;28;20049;-62
2021/10/07 06:42:41;;;;;;;10.48;3.72;;;;;;;9.48;100.00;97506.22;5034187;28;20044;-60
2021/10/07 06:45:28;;;;;;;6.13;3.22;;;;;;;9.94;100.00;97509.66;5059811;28;20043;-61
2021/10/07 06:48:13;;;;;;;6.60;3.10;;;;;;;10.37;100.00;97509.41;5051732;28;20191;-62
2021/10/07 06:50:59;;;;;;;3.80;2.50;;;;;;;10.74;100.00;97509.31;5053300;28;20095;-62
2021/10/07 06:53:25;;;;;;;5.00;2.50;;;;;;;11.16;100.00;97512.44;5052118;28;20518;-62
2021/10/07 06:55:50;;;;;;;4.32;2.50;;;;;;;11.16;98.89;97515.19;5060145;28;20657;-62
2021/10/07 06:58:18;;;;;;;5.97;2.50;;;;;;;11.39;98.42;97528.34;5071893;28;20059;-62
2021/10/07 07:00:44;;;;;;;9.90;4.80;;;;;;;11.17;98.89;97516.78;5062275;28;20123;-62
2021/10/07 07:03:10;;;;;;;5.15;3.03;;;;;;;10.92;100.00;97529.81;5054315;28;20068;-59
2021/10/07 07:05:35;;;;;;;4.53;2.40;;;;;;;10.11;100.00;97532.47;5058715;28;20071;-60
2021/10/07 07:08:01;;;;;;;9.45;4.43;;;;;;;10.44;100.00;97531.53;5037216;28;20060;-62
2021/10/07 07:10:26;;;;;;;6.88;3.90;;;;;;;11.81;99.90;97533.31;5031906;28;20041;-62
2021/10/07 07:12:52;;;;;;;7.93;3.20;;;;;;;13.54;90.03;97529.59;5039233;28;20049;-63
2021/10/07 07:15:18;;;;;;;6.68;3.17;;;;;;;12.98;85.78;97536.34;5032402;28;20502;-63
2021/10/07 07:17:44;;;;;;;19.05;7.03;;;;;;;11.58;95.08;97538.63;5054989;28;20415;-62
2021/10/07 07:20:10;;;;;;;7.10;2.90;;;;;;;11.67;96.14;97539.25;5054977;28;20041;-61
2021/10/07 07:22:36;;;;;;;6.00;2.47;;;;;;;12.13;91.80;97534.13;5053096;28;20111;-61
2021/10/07 07:25:03;;;;;;;2.75;1.80;;;;;;;12.43;89.24;97539.13;5058135;28;20519;-61
2021/10/07 07:27:28;;;;;;;3.90;1.90;;;;;;;11.24;94.51;97549.09;5053445;28;20040;-61
2021/10/07 07:29:55;;;;;;;4.85;2.17;;;;;;;10.79;98.11;97550.19;5059911;28;20087;-61
2021/10/07 07:32:21;;;;;;;6.43;2.40;;;;;;;10.29;100.00;97547.50;5053896;28;20040;-61
2021/10/07 07:34:47;;;;;;;5.72;2.83;;;;;;;9.96;100.00;97547.63;5060047;28;20535;-62
2021/10/07 07:37:12;;;;;;;3.63;2.63;;;;;;;10.06;100.00;97552.63;5053396;28;20044;-62
2021/10/07 07:39:38;;;;;;;7.28;3.20;;;;;;;10.59;100.00;97555.47;5060005;28;20052;-61
2021/10/07 07:42:04;;;;;;;4.78;2.60;;;;;;;10.41;100.00;97554.16;5049388;28;20044;-61
2021/10/07 07:44:29;;;;;;;5.78;3.08;;;;;;;10.30;100.00;97556.53;5062047;28;20045;-62
2021/10/07 07:46:55;;;;;;;3.75;2.63;;;;;;;10.19;100.00;97550.72;5056322;28;20079;-62
2021/10/07 07:49:21;;;;;;;3.38;2.88;;;;;;;10.21;100.00;97556.66;5046118;28;20036;-61
2021/10/07 07:51:47;;;;;;;10.18;2.60;;;;;;;11.31;100.00;97556.72;5058607;28;20131;-61
2021/10/07 07:54:12;;;;;;;9.07;2.90;;;;;;;11.99;97.74;97553.81;5056584;28;20040;-62
2021/10/07 07:56:38;;;;;;;5.22;2.70;;;;;;;12.04;93.40;97564.50;5058366;28;20131;-62
2021/10/07 07:59:06;;;;;;;4.35;2.50;;;;;;;13.50;87.02;97548.00;5057567;28;20048;-61
2021/10/07 08:01:32;;;;;;;5.55;2.30;;;;;;;14.01;83.24;97558.72;5057873;28;20496;-62
2021/10/07 08:03:57;;;;;;;6.55;2.45;;;;;;;15.67;72.31;97567.25;5058678;28;20060;-62
2021/10/07 08:06:23;;;;;;;5.63;2.33;;;;;;;15.51;71.22;97566.69;5063007;28;20517;-63
2021/10/07 08:08:48;;;;;;;6.60;2.20;;;;;;;14.59;74.44;97560.44;5058352;28;20413;-61
2021/10/07 08:11:13;;;;;;;4.30;1.80;;;;;;;14.89;73.61;97559.63;5050465;28;20658;-62
2021/10/07 08:13:39;;;;;;;3.40;1.77;;;;;;;14.98;72.65;97562.94;5059650;28;20047;-63
2021/10/07 08:16:05;;;;;;;5.85;1.80;;;;;;;13.94;74.49;97561.38;5056165;28;20102;-62
2021/10/07 08:18:30;;;;;;;6.65;1.85;;;;;;;12.95;79.98;97559.88;5056658;28;20044;-62
2021/10/07 08:20:55;;;;;;;4.32;1.58;;;;;;;12.43;83.14;97561.91;5054109;28;20037;-61
2021/10/07 08:23:28;;;;;;;5.72;2.22;;;;;;;12.71;83.75;97565.63;5055094;28;20248;-60
2021/10/07 08:25:55;;;;;;;5.55;2.13;;;;;;;13.78;78.82;97567.00;5044053;28;20055;-62
2021/10/07 08:28:21;;;;;;;4.68;2.03;;;;;;;13.03;83.12;97566.31;5051825;28;20036;-62
2021/10/07 08:30:47;;;;;;;5.22;2.30;;;;;;;12.17;90.25;97564.41;5055457;28;20040;-63
2021/10/07 08:33:13;;;;;;;3.58;2.70;;;;;;;11.82;91.11;97574.13;5052510;28;20052;-62
2021/10/07 08:35:38;;;;;;;5.18;2.70;;;;;;;10.76;95.97;97581.81;5068320;28;20058;-62
2021/10/07 08:38:06;;;;;;;5.32;2.83;;;;;;;11.94;91.69;97580.72;5059075;28;20056;-61
2021/10/07 08:40:32;;;;;;;5.75;2.58;;;;;;;11.53;93.42;97580.84;5023187;28;20744;-62
2021/10/07 08:42:57;;;;;;;3.65;2.35;;;;;;;11.47;91.72;97588.53;5057335;28;20056;-62
2021/10/07 08:45:27;;;;;;;3.25;2.03;;;;;;;10.79;94.79;97592.09;5050625;28;20053;-61
2021/10/07 08:47:54;;;;;;;;;;;;;;;11.10;95.19;97590.63;5020572;28;20048;-60
2021/10/07 08:50:20;;;;;;;4.97;2.20;;;;;;;10.58;96.15;97588.69;5056245;28;19985;-62
2021/10/07 08:52:47;;;;;;;2.55;1.70;;;;;;;10.92;96.72;97587.38;5058084;28;20485;-60
2021/10/07 08:55:12;;;;;;;2.85;2.17;;;;;;;11.75;90.74;97584.94;5052338;28;20052;-62
2021/10/07 08:57:39;;;;;;;5.90;2.35;;;;;;;12.05;89.08;97590.81;5061681;28;20044;-61
2021/10/07 09:00:11;;;;;;;4.88;2.63;;;;;;;11.33;90.90;97582.66;5031164;28;20040;-61
2021/10/07 09:02:37;;;;;;;3.50;2.10;;;;;;;11.38;92.68;97587.88;5055813;28;20059;-62
2021/10/07 09:05:15;;;;;;;4.85;1.95;;;;;;;11.70;89.25;97582.44;5037255;28;20056;-61
2021/10/07 09:08:09;;;;;;;2.70;1.40;;;;;;;11.81;83.78;97575.31;5056951;28;20051;-62
2021/10/07 09:10:55;;;;;;;2.20;1.08;;;;;;;11.40;86.06;97574.63;5059793;28;20036;-62
2021/10/07 09:13:23;;;;;;;2.42;1.52;;;;;;;11.27;89.83;97570.31;5050211;28;20102;-61
2021/10/07 09:15:55;;;;;;;3.13;1.80;;;;;;;11.22;91.02;97578.81;5058002;28;20040;-61
2021/10/07 09:18:21;;;;;;;1.95;1.40;;;;;;;11.22;89.89;97574.13;5050138;28;20071;-61
2021/10/07 09:20:49;;;;;;;2.50;1.60;;;;;;;11.28;93.20;97572.72;5067444;28;20040;-61
2021/10/07 09:23:38;;;;;;;3.08;1.58;;;;;;;11.53;90.14;97572.59;5051400;28;20033;-61
2021/10/07 09:26:10;;;;;;;2.35;1.05;;;;;;;11.44;87.73;97571.97;5065560;28;20118;-61
2021/10/07 09:28:51;;;;;;;2.55;1.25;;;;;;;11.24;89.15;97577.31;5067953;28;20082;-59
2021/10/07 09:31:33;;;;;;;5.35;4.28;;;;;;;11.48;86.05;97568.16;5049987;28;20045;-61
2021/10/07 09:34:01;;;;;;;1.88;1.30;;;;;;;11.10;85.26;97574.16;5056897;28;20135;-61
2021/10/07 09:36:29;;;;;;;2.33;1.00;;;;;;;10.97;86.02;97575.38;5036813;28;20314;-61
2021/10/07 09:38:55;;;;;;;3.83;1.00;;;;;;;11.01;87.41;97570.78;5060903;28;20493;-61
2021/10/07 09:41:30;;;;;;;5.95;1.73;;;;;;;11.67;86.63;97572.19;5051042;28;20043;-61
2021/10/07 09:43:59;;;;;;;3.08;1.10;;;;;;;12.15;84.41;97564.75;5054426;28;20132;-60
2021/10/07 09:46:47;;;;;;;1.57;0.90;;;;;;;13.27;79.11;97568.00;5050447;28;20080;-60
2021/10/07 09:49:16;;;;;;;3.05;1.05;;;;;;;12.98;77.56;97577.59;5050976;28;20032;-61
2021/10/07 09:51:49;;;;;;;2.88;0.95;;;;;;;13.64;73.00;97570.28;5059777;28;20063;-60
2021/10/07 09:54:19;;;;;;;1.95;0.75;;;;;;;13.81;73.13;97557.19;5062868;28;20094;-62
2021/10/07 09:56:56;;;;;;;2.17;1.00;;;;;;;14.31;69.67;97550.56;5064417;28;20052;-61
2021/10/07 09:59:22;;;;;;;2.08;0.70;;;;;;;14.17;66.12;97549.50;5047929;28;20052;-61
2021/10/07 10:01:48;;;;;;;1.58;1.08;;;;;;;15.08;66.22;97550.44;5058902;28;20049;-62
2021/10/07 10:04:14;;;;;;;0.88;0.60;;;;;;;13.72;71.92;97547.22;5048039;28;20461;-62
2021/10/07 10:06:40;;;;;;;1.95;0.88;;;;;;;13.52;72.93;97551.16;5059941;28;20097;-60
2021/10/07 10:09:06;;;;;;;3.83;1.10;;;;;;;13.15;74.91;97552.44;5059067;28;20044;-61
2021/10/07 10:11:31;;;;;;;2.08;0.90;;;;;;;13.19;72.10;97552.50;5043574;28;20045;-61
2021/10/07 10:13:57;;;;;;;2.40;0.68;;;;;;;12.60;70.56;97560.72;5037783;28;20047;-61
2021/10/07 10:16:24;;;;;;;4.93;1.02;;;;;;;12.04;75.26;97558.22;5054293;28;20052;-62
2021/10/07 10:19:00;;;;;;;3.35;0.95;;;;;;;12.00;74.74;97558.13;5059268;28;20471;-62
2021/10/07 10:21:27;;;;;;;2.92;0.80;;;;;;;12.29;74.21;97553.31;5054421;28;20051;-62
2021/10/07 10:23:55;;;;;;;1.80;0.70;;;;;;;12.03;75.87;97553.91;5059879;28;20044;-62
2021/10/07 10:26:21;;;;;;;1.63;0.70;;;;;;;12.38;73.57;97550.38;5053365;28;20040;-62
2021/10/07 10:28:51;;;;;;;3.35;0.70;;;;;;;12.01;72.96;97545.19;5059637;28;20097;-62
2021/10/07 10:31:16;;;;;;;;;;;;;;;12.06;71.62;97539.44;5053419;28;20052;-62
2021/10/07 10:33:44;;;;;;;1.02;0.65;;;;;;;12.19;71.54;97546.44;5059500;28;19974;-62
2021/10/07 10:36:25;;;;;;;2.10;0.82;;;;;;;13.64;67.67;97547.47;5053952;28;20036;-62
2021/10/07 10:39:13;;;;;;;3.50;0.75;;;;;;;13.87;65.04;97537.25;5063782;28;20500;-61
2021/10/07 10:41:43;;;;;;;1.10;0.70;;;;;;;14.46;64.32;97539.75;5066974;28;20661;-62
2021/10/07 10:44:26;;;;;;;;;;;;;;;15.41;62.11;97540.53;5062711;28;20044;-63
2021/10/07 10:46:59;;;;;;;1.33;0.75;;;;;;;16.20;61.64;97544.06;5062012;28;19938;-62
2021/10/07 10:49:40;;;;;;;0.95;0.70;;;;;;;16.50;61.22;97540.31;5052374;28;20044;-62
2021/10/07 10:52:13;;;;;;;4.00;0.80;;;;;;;16.44;58.97;97534.38;5051437;28;20044;-61
2021/10/07 10:54:46;;;;;;;1.45;0.73;;;;;;;16.41;58.21;97535.91;5060723;28;20826;-63
2021/10/07 10:57:28;;;;;;;2.63;1.38;;;;;;;15.78;60.09;97526.75;5053278;28;20106;-62
2021/10/07 11:00:19;;;;;;;1.17;0.70;;;;;;;15.76;62.39;97526.34;5057797;28;20401;-62
2021/10/07 11:03:20;;;;;;;2.03;0.80;;;;;;;15.79;61.63;97525.59;5058385;28;20524;-63
2021/10/07 11:06:10;;;;;;;4.47;1.33;;;;;;;15.27;61.79;97530.16;5044486;28;20044;-62
2021/10/07 11:08:41;;;;;;;;;;;;;;;14.59;63.64;97529.31;5058659;28;20136;-62
2021/10/07 11:11:09;;;;;;;1.42;1.00;;;;;;;14.28;64.91;97526.50;5052048;28;20006;-62
2021/10/07 11:13:47;;;;;;;3.90;1.10;;;;;;;12.85;71.24;97532.16;5037407;28;20455;-62
2021/10/07 11:16:17;;;;;;;2.08;1.05;;;;;;;12.40;68.26;97526.88;5059906;28;20273;-61
2021/10/07 11:18:43;;;;;;;1.10;0.70;;;;;;;12.01;67.70;97526.81;5058056;28;20072;-61
2021/10/07 11:21:15;;;;;;;1.98;0.80;;;;;;;12.01;67.82;97518.56;5052214;28;20106;-61
2021/10/07 11:23:42;;;;;;;2.97;0.77;;;;;;;12.07;69.37;97524.56;5057110;28;20098;-61
2021/10/07 11:26:09;;;;;;;3.38;0.80;;;;;;;12.03;71.01;97519.00;5051845;28;20418;-61
2021/10/07 11:28:40;;;;;;;3.05;1.20;;;;;;;12.19;70.74;97518.16;5058695;28;20315;-60
2021/10/07 11:31:20;;;;;;;2.13;1.00;;;;;;;11.92;72.31;97514.38;5045874;28;20401;-61
2021/10/07 11:33:49;;;;;;;2.35;1.10;;;;;;;11.90;71.46;97519.41;5055792;28;20083;-63
2021/10/07 11:36:17;;;;;;;3.22;1.50;;;;;;;11.79;71.22;97514.47;5051568;28;20045;-60
2021/10/07 11:38:45;;;;;;;4.82;2.45;;;;;;;12.09;72.33;97505.78;5057257;28;20051;-64
2021/10/07 11:41:12;;;;;;;4.07;1.25;;;;;;;12.61;70.77;97504.59;5054937;28;20040;-61
2021/10/07 11:43:40;;;;;;;2.45;1.42;;;;;;;12.52;72.04;97501.25;5048533;28;20607;-62
2021/10/07 11:46:12;;;;;;;2.35;1.17;;;;;;;13.14;69.91;97500.53;5048762;28;20052;-62
2021/10/07 11:48:42;;;;;;;2.30;1.17;;;;;;;14.72;62.29;97492.84;5053344;28;20045;-62
2021/10/07 11:51:08;;;;;;;3.47;1.23;;;;;;;14.86;62.70;97499.72;5057217;28;20040;-62
2021/10/07 11:53:39;;;;;;;2.08;1.10;;;;;;;15.12;61.46;97495.28;5019914;28;20567;-63
2021/10/07 11:56:11;;;;;;;1.67;1.10;;;;;;;12.78;69.57;97494.31;5056384;28;20124;-61
2021/10/07 11:58:37;;;;;;;2.90;1.10;;;;;;;12.81;69.15;97490.84;5056938;28;20051;-61
2021/10/07 12:01:04;;;;;;;2.53;1.10;;;;;;;12.99;70.76;97497.50;5061304;28;20665;-60
2021/10/07 12:03:31;;;;;;;3.05;1.27;;;;;;;12.57;71.04;97491.94;5061957;28;20041;-62
2021/10/07 12:06:17;;;;;;;3.20;1.83;;;;;;;12.24;72.78;97490.44;5057343;28;20056;-63
2021/10/07 12:08:44;;;;;;;2.45;1.33;;;;;;;12.33;73.36;97492.97;5052745;28;20039;-63
2021/10/07 12:11:13;;;;;;;2.17;1.35;;;;;;;12.20;74.86;97495.06;5053710;28;20085;-63
2021/10/07 12:13:47;;;;;;;2.85;1.40;;;;;;;12.39;72.80;97492.34;5057809;28;20041;-63
2021/10/07 12:16:17;;;;;;;2.25;1.20;;;;;;;12.09;72.91;97489.31;5050154;28;20127;-63
2021/10/07 12:18:48;;;;;;;2.40;0.90;;;;;;;12.38;73.19;97485.25;5060371;28;20135;-63
2021/10/07 12:21:19;;;;;;;2.55;1.20;;;;;;;11.99;73.81;97478.88;5052445;28;20075;-62
2021/10/07 12:23:54;;;;;;;2.05;1.30;;;;;;;11.89;73.60;97474.72;5057289;28;20045;-62
2021/10/07 12:26:35;;;;;;;2.03;1.00;;;;;;;11.85;74.05;97482.06;5053393;28;20040;-66
2021/10/07 12:29:07;;;;;;;2.17;1.40;;;;;;;11.78;73.45;97477.19;5054493;28;20095;-62